sensor_id;sensor_type;location;lat;lon;timestamp;P1;durP1;ratioP1;P2;durP2;ratioP2
27199;SDS011;14714;48.106;11.546;2023-09-30T00:01:22;25.98;;;10.63;;
27199;SDS011;14714;48.106;11.546;2023-09-30T00:03:49;24.42;;;10.07;;
27199;SDS011;14714;48.106;11.546;2023-09-30T00:06:16;27.33;;;10.90;;
27199;SDS011;14714;48.106;11.546;2023-09-30T00:08:44;26.23;;;10.18;;
27199;SDS011;14714;48.106;11.546;2023-09-30T00:11:14;24.25;;;9.80;;
27199;SDS011;14714;48.106;11.546;2023-09-30T00:13:43;25.02;;;10.18;;
27199;SDS011;14714;48.106;11.546;2023-09-30T00:16:10;23.67;;;10.07;;
27199;SDS011;14714;48.106;11.546;2023-09-30T00:18:37;28.08;;;10.32;;
27199;SDS011;14714;48.106;11.546;2023-09-30T00:21:03;27.73;;;10.57;;
27199;SDS011;14714;48.106;11.546;2023-09-30T00:23:31;24.70;;;10.30;;
27199;SDS011;14714;48.106;11.546;2023-09-30T00:25:58;30.35;;;11.27;;
27199;SDS011;14714;48.106;11.546;2023-09-30T00:28:26;28.23;;;10.55;;
27199;SDS011;14714;48.106;11.546;2023-09-30T00:30:54;26.70;;;11.15;;
27199;SDS011;14714;48.106;11.546;2023-09-30T00:33:21;32.63;;;12.02;;
27199;SDS011;14714;48.106;11.546;2023-09-30T00:35:48;27.50;;;11.07;;
27199;SDS011;14714;48.106;11.546;2023-09-30T00:38:15;26.35;;;10.65;;
27199;SDS011;14714;48.106;11.546;2023-09-30T00:40:48;28.58;;;10.60;;
27199;SDS011;14714;48.106;11.546;2023-09-30T00:43:19;26.13;;;10.68;;
27199;SDS011;14714;48.106;11.546;2023-09-30T00:45:48;28.77;;;10.20;;
27199;SDS011;14714;48.106;11.546;2023-09-30T00:48:18;25.63;;;10.20;;
27199;SDS011;14714;48.106;11.546;2023-09-30T00:50:45;29.67;;;11.02;;
27199;SDS011;14714;48.106;11.546;2023-09-30T00:53:12;25.77;;;10.98;;
27199;SDS011;14714;48.106;11.546;2023-09-30T00:55:39;27.15;;;11.43;;
27199;SDS011;14714;48.106;11.546;2023-09-30T00:58:06;26.58;;;10.85;;
27199;SDS011;14714;48.106;11.546;2023-09-30T01:00:34;28.98;;;11.50;;
27199;SDS011;14714;48.106;11.546;2023-09-30T01:03:01;24.60;;;10.75;;
27199;SDS011;14714;48.106;11.546;2023-09-30T01:05:30;28.50;;;11.15;;
27199;SDS011;14714;48.106;11.546;2023-09-30T01:07:58;30.20;;;11.40;;
27199;SDS011;14714;48.106;11.546;2023-09-30T01:10:27;31.03;;;11.77;;
27199;SDS011;14714;48.106;11.546;2023-09-30T01:12:54;26.58;;;11.32;;
27199;SDS011;14714;48.106;11.546;2023-09-30T01:15:21;29.02;;;11.07;;
27199;SDS011;14714;48.106;11.546;2023-09-30T01:17:48;29.33;;;10.77;;
27199;SDS011;14714;48.106;11.546;2023-09-30T01:20:15;25.35;;;10.38;;
27199;SDS011;14714;48.106;11.546;2023-09-30T01:22:47;26.92;;;10.93;;
27199;SDS011;14714;48.106;11.546;2023-09-30T01:25:14;28.85;;;11.30;;
27199;SDS011;14714;48.106;11.546;2023-09-30T01:27:41;28.23;;;11.43;;
27199;SDS011;14714;48.106;11.546;2023-09-30T01:30:08;30.13;;;12.15;;
27199;SDS011;14714;48.106;11.546;2023-09-30T01:32:37;30.20;;;12.07;;
27199;SDS011;14714;48.106;11.546;2023-09-30T01:35:04;30.90;;;12.52;;
27199;SDS011;14714;48.106;11.546;2023-09-30T01:37:32;26.45;;;10.75;;
27199;SDS011;14714;48.106;11.546;2023-09-30T01:39:58;28.38;;;11.90;;
27199;SDS011;14714;48.106;11.546;2023-09-30T01:42:25;24.35;;;10.90;;
27199;SDS011;14714;48.106;11.546;2023-09-30T01:44:52;26.30;;;10.95;;
27199;SDS011;14714;48.106;11.546;2023-09-30T01:47:20;26.25;;;10.40;;
27199;SDS011;14714;48.106;11.546;2023-09-30T01:49:47;24.25;;;10.35;;
27199;SDS011;14714;48.106;11.546;2023-09-30T01:52:14;28.00;;;10.80;;
27199;SDS011;14714;48.106;11.546;2023-09-30T01:54:41;26.60;;;10.75;;
27199;SDS011;14714;48.106;11.546;2023-09-30T01:57:08;29.10;;;10.90;;
27199;SDS011;14714;48.106;11.546;2023-09-30T01:59:36;33.03;;;13.05;;
27199;SDS011;14714;48.106;11.546;2023-09-30T02:02:03;28.35;;;11.55;;
27199;SDS011;14714;48.106;11.546;2023-09-30T02:04:29;28.50;;;11.13;;
27199;SDS011;14714;48.106;11.546;2023-09-30T02:06:57;26.48;;;11.50;;
27199;SDS011;14714;48.106;11.546;2023-09-30T02:09:24;27.85;;;11.98;;
27199;SDS011;14714;48.106;11.546;2023-09-30T02:11:51;27.23;;;11.15;;
27199;SDS011;14714;48.106;11.546;2023-09-30T02:14:18;34.00;;;12.85;;
27199;SDS011;14714;48.106;11.546;2023-09-30T02:16:44;27.48;;;11.68;;
27199;SDS011;14714;48.106;11.546;2023-09-30T02:19:12;26.27;;;10.57;;
27199;SDS011;14714;48.106;11.546;2023-09-30T02:21:39;29.55;;;11.80;;
27199;SDS011;14714;48.106;11.546;2023-09-30T02:24:06;28.48;;;11.23;;
27199;SDS011;14714;48.106;11.546;2023-09-30T02:26:33;26.35;;;11.13;;
27199;SDS011;14714;48.106;11.546;2023-09-30T02:29:00;25.88;;;10.75;;
27199;SDS011;14714;48.106;11.546;2023-09-30T02:31:27;23.85;;;9.85;;
27199;SDS011;14714;48.106;11.546;2023-09-30T02:33:54;26.85;;;10.60;;
27199;SDS011;14714;48.106;11.546;2023-09-30T02:36:21;25.17;;;10.00;;
27199;SDS011;14714;48.106;11.546;2023-09-30T02:38:48;23.60;;;10.45;;
27199;SDS011;14714;48.106;11.546;2023-09-30T02:41:15;26.67;;;11.07;;
27199;SDS011;14714;48.106;11.546;2023-09-30T02:43:43;23.38;;;10.43;;
27199;SDS011;14714;48.106;11.546;2023-09-30T02:46:10;27.77;;;11.45;;
27199;SDS011;14714;48.106;11.546;2023-09-30T02:48:38;28.45;;;11.65;;
27199;SDS011;14714;48.106;11.546;2023-09-30T02:51:09;28.00;;;10.77;;
27199;SDS011;14714;48.106;11.546;2023-09-30T02:53:37;29.35;;;11.52;;
27199;SDS011;14714;48.106;11.546;2023-09-30T02:56:04;29.58;;;11.52;;
27199;SDS011;14714;48.106;11.546;2023-09-30T02:58:31;29.98;;;11.27;;
27199;SDS011;14714;48.106;11.546;2023-09-30T03:00:58;29.73;;;12.02;;
27199;SDS011;14714;48.106;11.546;2023-09-30T03:03:26;30.55;;;12.32;;
27199;SDS011;14714;48.106;11.546;2023-09-30T03:05:53;27.45;;;11.02;;
27199;SDS011;14714;48.106;11.546;2023-09-30T03:08:20;29.90;;;11.90;;
27199;SDS011;14714;48.106;11.546;2023-09-30T03:10:48;28.23;;;11.48;;
27199;SDS011;14714;48.106;11.546;2023-09-30T03:13:15;28.55;;;11.63;;
27199;SDS011;14714;48.106;11.546;2023-09-30T03:15:42;25.58;;;10.40;;
27199;SDS011;14714;48.106;11.546;2023-09-30T03:18:08;28.63;;;11.65;;
27199;SDS011;14714;48.106;11.546;2023-09-30T03:20:36;26.75;;;10.43;;
27199;SDS011;14714;48.106;11.546;2023-09-30T03:23:06;26.35;;;10.20;;
27199;SDS011;14714;48.106;11.546;2023-09-30T03:25:34;23.80;;;10.02;;
27199;SDS011;14714;48.106;11.546;2023-09-30T03:28:01;25.15;;;10.32;;
27199;SDS011;14714;48.106;11.546;2023-09-30T03:30:32;24.85;;;10.35;;
27199;SDS011;14714;48.106;11.546;2023-09-30T03:32:59;28.55;;;11.23;;
27199;SDS011;14714;48.106;11.546;2023-09-30T03:35:26;23.60;;;9.95;;
27199;SDS011;14714;48.106;11.546;2023-09-30T03:37:53;23.48;;;9.73;;
27199;SDS011;14714;48.106;11.546;2023-09-30T03:40:20;25.65;;;11.00;;
27199;SDS011;14714;48.106;11.546;2023-09-30T03:42:54;28.10;;;11.35;;
27199;SDS011;14714;48.106;11.546;2023-09-30T03:45:21;29.70;;;11.55;;
27199;SDS011;14714;48.106;11.546;2023-09-30T03:47:48;24.48;;;10.18;;
27199;SDS011;14714;48.106;11.546;2023-09-30T03:50:15;26.85;;;10.68;;
27199;SDS011;14714;48.106;11.546;2023-09-30T03:52:43;23.00;;;9.25;;
27199;SDS011;14714;48.106;11.546;2023-09-30T03:55:13;30.58;;;12.18;;
27199;SDS011;14714;48.106;11.546;2023-09-30T03:57:47;26.63;;;10.82;;
27199;SDS011;14714;48.106;11.546;2023-09-30T04:00:15;27.83;;;11.10;;
27199;SDS011;14714;48.106;11.546;2023-09-30T04:02:45;26.23;;;10.38;;
27199;SDS011;14714;48.106;11.546;2023-09-30T04:05:17;24.98;;;10.68;;
27199;SDS011;14714;48.106;11.546;2023-09-30T04:07:45;28.58;;;10.95;;
27199;SDS011;14714;48.106;11.546;2023-09-30T04:10:13;28.17;;;11.30;;
27199;SDS011;14714;48.106;11.546;2023-09-30T04:12:40;26.02;;;10.52;;
27199;SDS011;14714;48.106;11.546;2023-09-30T04:15:07;26.88;;;11.20;;
27199;SDS011;14714;48.106;11.546;2023-09-30T04:17:38;25.13;;;10.80;;
27199;SDS011;14714;48.106;11.546;2023-09-30T04:20:06;26.73;;;10.75;;
27199;SDS011;14714;48.106;11.546;2023-09-30T04:22:38;23.17;;;10.00;;
27199;SDS011;14714;48.106;11.546;2023-09-30T04:25:05;23.10;;;10.23;;
27199;SDS011;14714;48.106;11.546;2023-09-30T04:27:35;26.10;;;10.15;;
27199;SDS011;14714;48.106;11.546;2023-09-30T04:30:03;26.52;;;10.57;;
27199;SDS011;14714;48.106;11.546;2023-09-30T04:32:35;27.67;;;10.55;;
27199;SDS011;14714;48.106;11.546;2023-09-30T04:35:03;23.35;;;9.63;;
27199;SDS011;14714;48.106;11.546;2023-09-30T04:37:31;25.95;;;10.23;;
27199;SDS011;14714;48.106;11.546;2023-09-30T04:39:58;22.42;;;10.05;;
27199;SDS011;14714;48.106;11.546;2023-09-30T04:42:24;26.10;;;10.57;;
27199;SDS011;14714;48.106;11.546;2023-09-30T04:44:55;25.42;;;10.35;;
27199;SDS011;14714;48.106;11.546;2023-09-30T04:47:21;32.30;;;11.20;;
27199;SDS011;14714;48.106;11.546;2023-09-30T04:49:50;24.02;;;10.02;;
27199;SDS011;14714;48.106;11.546;2023-09-30T04:52:17;25.42;;;10.10;;
27199;SDS011;14714;48.106;11.546;2023-09-30T04:54:44;24.40;;;9.90;;
27199;SDS011;14714;48.106;11.546;2023-09-30T04:57:11;22.33;;;9.40;;
27199;SDS011;14714;48.106;11.546;2023-09-30T04:59:38;22.90;;;9.40;;
27199;SDS011;14714;48.106;11.546;2023-09-30T05:02:05;21.95;;;8.77;;
27199;SDS011;14714;48.106;11.546;2023-09-30T05:04:32;22.60;;;9.07;;
27199;SDS011;14714;48.106;11.546;2023-09-30T05:06:59;23.00;;;9.13;;
27199;SDS011;14714;48.106;11.546;2023-09-30T05:09:26;22.77;;;9.32;;
27199;SDS011;14714;48.106;11.546;2023-09-30T05:11:54;23.45;;;9.07;;
27199;SDS011;14714;48.106;11.546;2023-09-30T05:14:21;23.23;;;9.55;;
27199;SDS011;14714;48.106;11.546;2023-09-30T05:16:48;21.42;;;9.20;;
27199;SDS011;14714;48.106;11.546;2023-09-30T05:19:15;21.40;;;8.43;;
27199;SDS011;14714;48.106;11.546;2023-09-30T05:21:42;23.88;;;8.77;;
27199;SDS011;14714;48.106;11.546;2023-09-30T05:24:11;22.60;;;9.00;;
27199;SDS011;14714;48.106;11.546;2023-09-30T05:26:38;21.92;;;8.65;;
27199;SDS011;14714;48.106;11.546;2023-09-30T05:29:05;17.75;;;8.00;;
27199;SDS011;14714;48.106;11.546;2023-09-30T05:31:32;21.75;;;8.65;;
27199;SDS011;14714;48.106;11.546;2023-09-30T05:33:59;23.77;;;9.75;;
27199;SDS011;14714;48.106;11.546;2023-09-30T05:36:26;24.88;;;9.70;;
27199;SDS011;14714;48.106;11.546;2023-09-30T05:38:54;23.42;;;9.82;;
27199;SDS011;14714;48.106;11.546;2023-09-30T05:41:21;21.85;;;9.00;;
27199;SDS011;14714;48.106;11.546;2023-09-30T05:43:48;28.75;;;10.15;;
27199;SDS011;14714;48.106;11.546;2023-09-30T05:46:15;23.75;;;9.25;;
27199;SDS011;14714;48.106;11.546;2023-09-30T05:48:42;23.20;;;9.15;;
27199;SDS011;14714;48.106;11.546;2023-09-30T05:51:09;21.80;;;9.60;;
27199;SDS011;14714;48.106;11.546;2023-09-30T05:53:40;23.23;;;9.43;;
27199;SDS011;14714;48.106;11.546;2023-09-30T05:56:09;20.60;;;9.32;;
27199;SDS011;14714;48.106;11.546;2023-09-30T05:58:41;25.80;;;9.57;;
27199;SDS011;14714;48.106;11.546;2023-09-30T06:01:08;26.05;;;10.25;;
27199;SDS011;14714;48.106;11.546;2023-09-30T06:03:41;26.70;;;10.40;;
27199;SDS011;14714;48.106;11.546;2023-09-30T06:06:12;27.15;;;10.07;;
27199;SDS011;14714;48.106;11.546;2023-09-30T06:08:39;26.98;;;10.35;;
27199;SDS011;14714;48.106;11.546;2023-09-30T06:11:06;25.27;;;9.88;;
27199;SDS011;14714;48.106;11.546;2023-09-30T06:13:33;27.33;;;10.27;;
27199;SDS011;14714;48.106;11.546;2023-09-30T06:16:00;22.95;;;9.18;;
27199;SDS011;14714;48.106;11.546;2023-09-30T06:18:28;25.77;;;10.07;;
27199;SDS011;14714;48.106;11.546;2023-09-30T06:20:55;27.10;;;9.90;;
27199;SDS011;14714;48.106;11.546;2023-09-30T06:23:24;31.48;;;10.27;;
27199;SDS011;14714;48.106;11.546;2023-09-30T06:25:50;25.42;;;9.98;;
27199;SDS011;14714;48.106;11.546;2023-09-30T06:28:18;23.67;;;9.50;;
27199;SDS011;14714;48.106;11.546;2023-09-30T06:30:49;25.17;;;9.43;;
27199;SDS011;14714;48.106;11.546;2023-09-30T06:33:16;25.38;;;9.32;;
27199;SDS011;14714;48.106;11.546;2023-09-30T06:35:43;21.42;;;8.75;;
27199;SDS011;14714;48.106;11.546;2023-09-30T06:38:17;23.55;;;9.52;;
27199;SDS011;14714;48.106;11.546;2023-09-30T06:40:45;21.98;;;9.00;;
27199;SDS011;14714;48.106;11.546;2023-09-30T06:43:14;22.03;;;8.47;;
27199;SDS011;14714;48.106;11.546;2023-09-30T06:45:44;25.48;;;8.95;;
27199;SDS011;14714;48.106;11.546;2023-09-30T06:48:13;18.92;;;8.25;;
27199;SDS011;14714;48.106;11.546;2023-09-30T06:50:43;20.60;;;8.45;;
27199;SDS011;14714;48.106;11.546;2023-09-30T06:53:18;19.10;;;7.97;;
27199;SDS011;14714;48.106;11.546;2023-09-30T06:55:45;19.38;;;8.15;;
27199;SDS011;14714;48.106;11.546;2023-09-30T06:58:12;16.92;;;7.45;;
27199;SDS011;14714;48.106;11.546;2023-09-30T07:00:40;16.52;;;7.03;;
27199;SDS011;14714;48.106;11.546;2023-09-30T07:03:08;18.00;;;7.07;;
27199;SDS011;14714;48.106;11.546;2023-09-30T07:05:36;18.20;;;6.70;;
27199;SDS011;14714;48.106;11.546;2023-09-30T07:08:03;16.17;;;7.15;;
27199;SDS011;14714;48.106;11.546;2023-09-30T07:10:30;17.55;;;6.90;;
27199;SDS011;14714;48.106;11.546;2023-09-30T07:12:57;16.75;;;5.93;;
27199;SDS011;14714;48.106;11.546;2023-09-30T07:15:24;16.13;;;6.70;;
27199;SDS011;14714;48.106;11.546;2023-09-30T07:17:51;15.40;;;6.30;;
27199;SDS011;14714;48.106;11.546;2023-09-30T07:20:18;16.55;;;6.53;;
27199;SDS011;14714;48.106;11.546;2023-09-30T07:22:46;15.68;;;6.38;;
27199;SDS011;14714;48.106;11.546;2023-09-30T07:25:28;14.88;;;6.07;;
27199;SDS011;14714;48.106;11.546;2023-09-30T07:27:58;17.40;;;6.80;;
27199;SDS011;14714;48.106;11.546;2023-09-30T07:30:25;16.30;;;6.60;;
27199;SDS011;14714;48.106;11.546;2023-09-30T07:32:52;15.88;;;6.43;;
27199;SDS011;14714;48.106;11.546;2023-09-30T07:35:19;15.50;;;6.43;;
27199;SDS011;14714;48.106;11.546;2023-09-30T07:37:46;14.98;;;5.95;;
27199;SDS011;14714;48.106;11.546;2023-09-30T07:40:13;16.23;;;6.53;;
27199;SDS011;14714;48.106;11.546;2023-09-30T07:42:40;14.15;;;5.93;;
27199;SDS011;14714;48.106;11.546;2023-09-30T07:45:07;17.40;;;5.93;;
27199;SDS011;14714;48.106;11.546;2023-09-30T07:47:34;15.15;;;6.25;;
27199;SDS011;14714;48.106;11.546;2023-09-30T07:50:02;17.20;;;6.22;;
27199;SDS011;14714;48.106;11.546;2023-09-30T07:52:36;16.02;;;6.28;;
27199;SDS011;14714;48.106;11.546;2023-09-30T07:55:05;15.88;;;6.38;;
27199;SDS011;14714;48.106;11.546;2023-09-30T07:57:33;17.17;;;6.68;;
27199;SDS011;14714;48.106;11.546;2023-09-30T08:00:00;14.27;;;6.82;;
27199;SDS011;14714;48.106;11.546;2023-09-30T08:02:28;17.02;;;6.13;;
27199;SDS011;14714;48.106;11.546;2023-09-30T08:04:59;16.73;;;6.53;;
27199;SDS011;14714;48.106;11.546;2023-09-30T08:07:26;13.95;;;6.57;;
27199;SDS011;14714;48.106;11.546;2023-09-30T08:09:53;15.18;;;6.50;;
27199;SDS011;14714;48.106;11.546;2023-09-30T08:12:20;16.73;;;6.07;;
27199;SDS011;14714;48.106;11.546;2023-09-30T08:14:47;13.90;;;6.03;;
27199;SDS011;14714;48.106;11.546;2023-09-30T08:17:15;14.90;;;6.07;;
27199;SDS011;14714;48.106;11.546;2023-09-30T08:19:43;14.30;;;5.47;;
27199;SDS011;14714;48.106;11.546;2023-09-30T08:22:10;14.35;;;6.25;;
27199;SDS011;14714;48.106;11.546;2023-09-30T08:24:37;13.80;;;6.03;;
27199;SDS011;14714;48.106;11.546;2023-09-30T08:27:04;12.80;;;5.97;;
27199;SDS011;14714;48.106;11.546;2023-09-30T08:29:34;13.15;;;5.78;;
27199;SDS011;14714;48.106;11.546;2023-09-30T08:32:04;13.13;;;5.60;;
27199;SDS011;14714;48.106;11.546;2023-09-30T08:34:31;13.68;;;5.65;;
27199;SDS011;14714;48.106;11.546;2023-09-30T08:36:59;13.00;;;6.28;;
27199;SDS011;14714;48.106;11.546;2023-09-30T08:39:27;15.75;;;6.35;;
27199;SDS011;14714;48.106;11.546;2023-09-30T08:41:57;16.58;;;6.32;;
27199;SDS011;14714;48.106;11.546;2023-09-30T08:44:28;16.48;;;6.45;;
27199;SDS011;14714;48.106;11.546;2023-09-30T08:46:56;15.75;;;6.40;;
27199;SDS011;14714;48.106;11.546;2023-09-30T08:49:23;13.00;;;5.93;;
27199;SDS011;14714;48.106;11.546;2023-09-30T08:51:52;15.32;;;6.70;;
27199;SDS011;14714;48.106;11.546;2023-09-30T08:54:23;15.55;;;6.65;;
27199;SDS011;14714;48.106;11.546;2023-09-30T08:56:51;16.88;;;6.93;;
27199;SDS011;14714;48.106;11.546;2023-09-30T08:59:18;12.68;;;6.40;;
27199;SDS011;14714;48.106;11.546;2023-09-30T09:01:46;16.52;;;7.53;;
27199;SDS011;14714;48.106;11.546;2023-09-30T09:04:13;17.92;;;7.07;;
27199;SDS011;14714;48.106;11.546;2023-09-30T09:06:41;16.55;;;6.85;;
27199;SDS011;14714;48.106;11.546;2023-09-30T09:09:14;15.40;;;6.90;;
27199;SDS011;14714;48.106;11.546;2023-09-30T09:11:45;15.30;;;7.07;;
27199;SDS011;14714;48.106;11.546;2023-09-30T09:14:13;17.95;;;6.93;;
27199;SDS011;14714;48.106;11.546;2023-09-30T09:16:53;18.92;;;6.90;;
27199;SDS011;14714;48.106;11.546;2023-09-30T09:19:22;15.55;;;7.25;;
27199;SDS011;14714;48.106;11.546;2023-09-30T09:21:56;14.98;;;7.10;;
27199;SDS011;14714;48.106;11.546;2023-09-30T09:24:31;16.83;;;6.80;;
27199;SDS011;14714;48.106;11.546;2023-09-30T09:27:06;17.90;;;7.35;;
27199;SDS011;14714;48.106;11.546;2023-09-30T09:29:37;24.77;;;9.18;;
27199;SDS011;14714;48.106;11.546;2023-09-30T09:32:12;15.13;;;7.15;;
27199;SDS011;14714;48.106;11.546;2023-09-30T09:34:40;16.70;;;7.15;;
27199;SDS011;14714;48.106;11.546;2023-09-30T09:42:24;15.43;;;6.75;;
27199;SDS011;14714;48.106;11.546;2023-09-30T09:44:53;16.70;;;7.13;;
27199;SDS011;14714;48.106;11.546;2023-09-30T09:47:22;14.88;;;7.07;;
27199;SDS011;14714;48.106;11.546;2023-09-30T09:49:50;17.60;;;7.63;;
27199;SDS011;14714;48.106;11.546;2023-09-30T09:52:19;19.73;;;8.35;;
27199;SDS011;14714;48.106;11.546;2023-09-30T09:54:47;18.15;;;7.70;;
27199;SDS011;14714;48.106;11.546;2023-09-30T09:57:14;16.00;;;7.00;;
27199;SDS011;14714;48.106;11.546;2023-09-30T09:59:44;16.97;;;7.37;;
27199;SDS011;14714;48.106;11.546;2023-09-30T10:02:15;17.40;;;6.95;;
27199;SDS011;14714;48.106;11.546;2023-09-30T10:04:44;17.52;;;7.90;;
27199;SDS011;14714;48.106;11.546;2023-09-30T10:07:22;16.25;;;7.47;;
27199;SDS011;14714;48.106;11.546;2023-09-30T10:09:53;15.30;;;7.30;;
27199;SDS011;14714;48.106;11.546;2023-09-30T10:12:24;16.00;;;7.45;;
27199;SDS011;14714;48.106;11.546;2023-09-30T10:14:52;15.32;;;7.30;;
27199;SDS011;14714;48.106;11.546;2023-09-30T10:17:19;15.82;;;7.50;;
27199;SDS011;14714;48.106;11.546;2023-09-30T10:20:04;16.15;;;7.00;;
27199;SDS011;14714;48.106;11.546;2023-09-30T10:22:33;15.45;;;6.47;;
27199;SDS011;14714;48.106;11.546;2023-09-30T10:25:00;14.45;;;6.60;;
27199;SDS011;14714;48.106;11.546;2023-09-30T10:27:47;14.10;;;6.78;;
27199;SDS011;14714;48.106;11.546;2023-09-30T10:30:14;14.13;;;6.30;;
27199;SDS011;14714;48.106;11.546;2023-09-30T10:40:57;13.80;;;6.30;;
27199;SDS011;14714;48.106;11.546;2023-09-30T10:43:34;14.35;;;5.80;;
27199;SDS011;14714;48.106;11.546;2023-09-30T10:46:02;15.85;;;6.47;;
27199;SDS011;14714;48.106;11.546;2023-09-30T10:48:34;16.10;;;7.38;;
27199;SDS011;14714;48.106;11.546;2023-09-30T10:53:42;13.15;;;6.30;;
27199;SDS011;14714;48.106;11.546;2023-09-30T10:56:11;15.50;;;6.95;;
27199;SDS011;14714;48.106;11.546;2023-09-30T10:58:42;14.73;;;6.70;;
27199;SDS011;14714;48.106;11.546;2023-09-30T11:01:14;11.38;;;6.15;;
27199;SDS011;14714;48.106;11.546;2023-09-30T11:03:44;18.10;;;7.68;;
27199;SDS011;14714;48.106;11.546;2023-09-30T11:06:16;16.35;;;7.45;;
27199;SDS011;14714;48.106;11.546;2023-09-30T11:08:53;15.38;;;7.38;;
27199;SDS011;14714;48.106;11.546;2023-09-30T11:14:22;18.15;;;7.90;;
27199;SDS011;14714;48.106;11.546;2023-09-30T11:16:55;14.35;;;7.05;;
27199;SDS011;14714;48.106;11.546;2023-09-30T11:19:23;14.20;;;6.45;;
27199;SDS011;14714;48.106;11.546;2023-09-30T11:21:54;18.15;;;7.28;;
27199;SDS011;14714;48.106;11.546;2023-09-30T11:24:21;16.45;;;7.60;;
27199;SDS011;14714;48.106;11.546;2023-09-30T11:26:52;21.73;;;9.02;;
27199;SDS011;14714;48.106;11.546;2023-09-30T11:29:19;17.02;;;7.85;;
27199;SDS011;14714;48.106;11.546;2023-09-30T11:31:48;18.30;;;8.55;;
27199;SDS011;14714;48.106;11.546;2023-09-30T11:36:50;17.08;;;8.15;;
27199;SDS011;14714;48.106;11.546;2023-09-30T11:39:23;15.50;;;7.32;;
27199;SDS011;14714;48.106;11.546;2023-09-30T11:41:54;17.85;;;7.55;;
27199;SDS011;14714;48.106;11.546;2023-09-30T11:44:24;17.10;;;7.60;;
27199;SDS011;14714;48.106;11.546;2023-09-30T11:51:56;20.17;;;8.25;;
27199;SDS011;14714;48.106;11.546;2023-09-30T11:54:28;17.90;;;7.80;;
27199;SDS011;14714;48.106;11.546;2023-09-30T11:57:02;19.33;;;8.48;;
27199;SDS011;14714;48.106;11.546;2023-09-30T11:59:30;21.83;;;8.38;;
27199;SDS011;14714;48.106;11.546;2023-09-30T12:01:57;19.08;;;7.88;;
27199;SDS011;14714;48.106;11.546;2023-09-30T12:04:40;19.83;;;8.40;;
27199;SDS011;14714;48.106;11.546;2023-09-30T12:07:11;17.45;;;8.43;;
27199;SDS011;14714;48.106;11.546;2023-09-30T12:09:39;18.88;;;8.00;;
27199;SDS011;14714;48.106;11.546;2023-09-30T12:12:07;17.88;;;7.47;;
27199;SDS011;14714;48.106;11.546;2023-09-30T12:14:40;20.67;;;8.35;;
27199;SDS011;14714;48.106;11.546;2023-09-30T12:17:07;23.90;;;9.70;;
27199;SDS011;14714;48.106;11.546;2023-09-30T12:19:38;25.38;;;9.32;;
27199;SDS011;14714;48.106;11.546;2023-09-30T12:22:05;23.23;;;9.43;;
27199;SDS011;14714;48.106;11.546;2023-09-30T12:24:33;24.73;;;9.35;;
27199;SDS011;14714;48.106;11.546;2023-09-30T12:27:00;18.73;;;8.70;;
27199;SDS011;14714;48.106;11.546;2023-09-30T12:29:28;19.55;;;9.02;;
27199;SDS011;14714;48.106;11.546;2023-09-30T12:31:54;18.65;;;8.60;;
27199;SDS011;14714;48.106;11.546;2023-09-30T12:34:22;17.33;;;8.48;;
27199;SDS011;14714;48.106;11.546;2023-09-30T12:36:53;16.42;;;7.60;;
27199;SDS011;14714;48.106;11.546;2023-09-30T12:39:25;18.98;;;8.70;;
27199;SDS011;14714;48.106;11.546;2023-09-30T12:41:53;19.58;;;8.77;;
27199;SDS011;14714;48.106;11.546;2023-09-30T12:44:20;19.50;;;8.75;;
27199;SDS011;14714;48.106;11.546;2023-09-30T12:46:49;21.35;;;9.13;;
27199;SDS011;14714;48.106;11.546;2023-09-30T12:49:16;22.80;;;9.13;;
27199;SDS011;14714;48.106;11.546;2023-09-30T12:51:44;21.45;;;9.35;;
27199;SDS011;14714;48.106;11.546;2023-09-30T12:54:12;23.25;;;9.70;;
27199;SDS011;14714;48.106;11.546;2023-09-30T12:56:41;23.38;;;9.48;;
27199;SDS011;14714;48.106;11.546;2023-09-30T12:59:08;23.25;;;9.57;;
27199;SDS011;14714;48.106;11.546;2023-09-30T13:01:35;20.75;;;9.10;;
27199;SDS011;14714;48.106;11.546;2023-09-30T13:04:03;20.48;;;8.40;;
27199;SDS011;14714;48.106;11.546;2023-09-30T13:06:35;19.67;;;8.48;;
27199;SDS011;14714;48.106;11.546;2023-09-30T13:09:02;20.58;;;8.27;;
27199;SDS011;14714;48.106;11.546;2023-09-30T13:11:34;21.30;;;8.57;;
27199;SDS011;14714;48.106;11.546;2023-09-30T13:14:04;20.85;;;8.90;;
27199;SDS011;14714;48.106;11.546;2023-09-30T13:16:31;23.02;;;8.95;;
27199;SDS011;14714;48.106;11.546;2023-09-30T13:18:58;19.33;;;8.10;;
27199;SDS011;14714;48.106;11.546;2023-09-30T13:21:26;20.55;;;9.35;;
27199;SDS011;14714;48.106;11.546;2023-09-30T13:23:53;23.35;;;9.20;;
27199;SDS011;14714;48.106;11.546;2023-09-30T13:26:20;17.05;;;7.93;;
27199;SDS011;14714;48.106;11.546;2023-09-30T13:28:47;17.65;;;7.65;;
27199;SDS011;14714;48.106;11.546;2023-09-30T13:31:14;20.88;;;8.90;;
27199;SDS011;14714;48.106;11.546;2023-09-30T13:33:41;18.52;;;8.05;;
27199;SDS011;14714;48.106;11.546;2023-09-30T13:36:08;19.63;;;8.38;;
27199;SDS011;14714;48.106;11.546;2023-09-30T13:38:35;21.10;;;8.20;;
27199;SDS011;14714;48.106;11.546;2023-09-30T13:41:03;19.58;;;9.00;;
27199;SDS011;14714;48.106;11.546;2023-09-30T13:43:30;21.02;;;8.00;;
27199;SDS011;14714;48.106;11.546;2023-09-30T13:45:57;19.13;;;8.68;;
27199;SDS011;14714;48.106;11.546;2023-09-30T13:48:29;16.98;;;7.70;;
27199;SDS011;14714;48.106;11.546;2023-09-30T13:51:03;18.73;;;9.02;;
27199;SDS011;14714;48.106;11.546;2023-09-30T13:53:33;19.48;;;8.23;;
27199;SDS011;14714;48.106;11.546;2023-09-30T14:03:47;21.27;;;8.85;;
27199;SDS011;14714;48.106;11.546;2023-09-30T14:06:14;17.98;;;8.32;;
27199;SDS011;14714;48.106;11.546;2023-09-30T14:08:41;20.20;;;8.02;;
27199;SDS011;14714;48.106;11.546;2023-09-30T14:11:11;20.10;;;8.33;;
27199;SDS011;14714;48.106;11.546;2023-09-30T14:13:38;20.05;;;8.15;;
27199;SDS011;14714;48.106;11.546;2023-09-30T14:16:10;20.67;;;8.45;;
27199;SDS011;14714;48.106;11.546;2023-09-30T14:18:42;19.73;;;7.78;;
27199;SDS011;14714;48.106;11.546;2023-09-30T14:21:13;16.60;;;7.70;;
27199;SDS011;14714;48.106;11.546;2023-09-30T14:23:43;19.50;;;7.88;;
27199;SDS011;14714;48.106;11.546;2023-09-30T14:26:12;20.35;;;7.88;;
27199;SDS011;14714;48.106;11.546;2023-09-30T14:28:41;17.35;;;7.60;;
27199;SDS011;14714;48.106;11.546;2023-09-30T14:31:10;16.58;;;7.45;;
27199;SDS011;14714;48.106;11.546;2023-09-30T14:33:39;19.73;;;8.30;;
27199;SDS011;14714;48.106;11.546;2023-09-30T14:36:08;19.35;;;7.93;;
27199;SDS011;14714;48.106;11.546;2023-09-30T14:38:39;18.70;;;8.32;;
27199;SDS011;14714;48.106;11.546;2023-09-30T14:41:08;18.20;;;7.80;;
27199;SDS011;14714;48.106;11.546;2023-09-30T14:43:39;18.17;;;7.65;;
27199;SDS011;14714;48.106;11.546;2023-09-30T14:46:11;17.70;;;7.93;;
27199;SDS011;14714;48.106;11.546;2023-09-30T14:48:42;17.75;;;7.85;;
27199;SDS011;14714;48.106;11.546;2023-09-30T14:51:23;18.42;;;7.93;;
27199;SDS011;14714;48.106;11.546;2023-09-30T14:54:03;18.55;;;7.97;;
27199;SDS011;14714;48.106;11.546;2023-09-30T14:56:36;16.20;;;7.25;;
27199;SDS011;14714;48.106;11.546;2023-09-30T14:59:14;21.17;;;9.20;;